sensor_id;sensor_type;location;lat;lon;timestamp;pressure;altitude;pressure_sealevel;temperature;humidity
48015;BME280;33780;51.034;7.120;2022-07-18T00:00:58;101609.94;;;19.70;50.01
48015;BME280;33780;51.034;7.120;2022-07-18T00:03:24;101611.81;;;19.69;50.22
48015;BME280;33780;51.034;7.120;2022-07-18T00:05:49;101604.00;;;19.66;50.18
48015;BME280;33780;51.034;7.120;2022-07-18T00:08:15;101609.59;;;19.65;50.24
48015;BME280;33780;51.034;7.120;2022-07-18T00:10:40;101612.66;;;19.61;50.25
48015;BME280;33780;51.034;7.120;2022-07-18T00:13:05;101615.88;;;19.57;50.29
48015;BME280;33780;51.034;7.120;2022-07-18T00:15:31;101608.19;;;19.52;50.16
48015;BME280;33780;51.034;7.120;2022-07-18T00:17:56;101606.66;;;19.50;50.13
48015;BME280;33780;51.034;7.120;2022-07-18T00:20:21;101607.00;;;19.47;50.02
48015;BME280;33780;51.034;7.120;2022-07-18T00:22:47;101608.03;;;19.46;50.36
48015;BME280;33780;51.034;7.120;2022-07-18T00:25:12;101614.81;;;19.42;50.41
48015;BME280;33780;51.034;7.120;2022-07-18T00:27:37;101615.84;;;19.41;50.30
48015;BME280;33780;51.034;7.120;2022-07-18T00:30:04;101607.16;;;19.37;50.39
48015;BME280;33780;51.034;7.120;2022-07-18T00:32:29;101607.50;;;19.34;50.44
48015;BME280;33780;51.034;7.120;2022-07-18T00:34:54;101614.97;;;19.32;50.46
48015;BME280;33780;51.034;7.120;2022-07-18T00:37:20;101603.75;;;19.27;50.71
48015;BME280;33780;51.034;7.120;2022-07-18T00:39:45;101612.25;;;19.24;50.43
48015;BME280;33780;51.034;7.120;2022-07-18T00:42:10;101608.97;;;19.20;50.52
48015;BME280;33780;51.034;7.120;2022-07-18T00:44:36;101609.16;;;19.19;50.63
48015;BME280;33780;51.034;7.120;2022-07-18T00:47:02;101609.31;;;19.17;50.82
48015;BME280;33780;51.034;7.120;2022-07-18T00:49:28;101604.22;;;19.14;50.74
48015;BME280;33780;51.034;7.120;2022-07-18T00:51:54;101608.31;;;19.10;50.50
48015;BME280;33780;51.034;7.120;2022-07-18T00:54:20;101611.19;;;19.09;50.26
48015;BME280;33780;51.034;7.120;2022-07-18T00:56:48;101598.97;;;19.05;50.76
48015;BME280;33780;51.034;7.120;2022-07-18T00:59:13;101598.25;;;19.02;50.80
48015;BME280;33780;51.034;7.120;2022-07-18T01:01:39;101602.16;;;19.00;50.82
48015;BME280;33780;51.034;7.120;2022-07-18T01:04:22;101599.94;;;18.95;51.19
48015;BME280;33780;51.034;7.120;2022-07-18T01:06:49;101595.69;;;18.93;51.04
48015;BME280;33780;51.034;7.120;2022-07-18T01:09:16;101592.47;;;18.89;50.96
48015;BME280;33780;51.034;7.120;2022-07-18T01:11:44;101593.50;;;18.88;51.06
48015;BME280;33780;51.034;7.120;2022-07-18T01:14:10;101587.38;;;18.86;51.09
48015;BME280;33780;51.034;7.120;2022-07-18T01:16:36;101592.94;;;18.85;51.53
48015;BME280;33780;51.034;7.120;2022-07-18T01:19:02;101587.00;;;18.81;51.33
48015;BME280;33780;51.034;7.120;2022-07-18T01:21:28;101585.63;;;18.77;51.37
48015;BME280;33780;51.034;7.120;2022-07-18T01:23:53;101585.13;;;18.74;51.39
48015;BME280;33780;51.034;7.120;2022-07-18T01:26:19;101581.91;;;18.70;51.47
48015;BME280;33780;51.034;7.120;2022-07-18T01:28:45;101582.19;;;18.67;51.71
48015;BME280;33780;51.034;7.120;2022-07-18T01:31:11;101587.78;;;18.65;51.72
48015;BME280;33780;51.034;7.120;2022-07-18T01:33:37;101592.66;;;18.62;51.68
48015;BME280;33780;51.034;7.120;2022-07-18T01:36:04;101596.38;;;18.61;51.73
48015;BME280;33780;51.034;7.120;2022-07-18T01:38:31;101595.00;;;18.57;51.71
48015;BME280;33780;51.034;7.120;2022-07-18T01:40:57;101588.41;;;18.51;51.76
48015;BME280;33780;51.034;7.120;2022-07-18T01:43:23;101593.13;;;18.49;51.91
48015;BME280;33780;51.034;7.120;2022-07-18T01:45:50;101594.28;;;18.47;52.00
48015;BME280;33780;51.034;7.120;2022-07-18T01:48:15;101592.56;;;18.46;52.07
48015;BME280;33780;51.034;7.120;2022-07-18T01:50:41;101593.91;;;18.41;51.86
48015;BME280;33780;51.034;7.120;2022-07-18T01:53:06;101592.38;;;18.39;51.84
48015;BME280;33780;51.034;7.120;2022-07-18T01:55:32;101594.75;;;18.34;52.02
48015;BME280;33780;51.034;7.120;2022-07-18T01:57:57;101595.03;;;18.31;52.25
48015;BME280;33780;51.034;7.120;2022-07-18T02:00:22;101592.50;;;18.29;52.52
48015;BME280;33780;51.034;7.120;2022-07-18T02:02:48;101596.22;;;18.28;52.55
48015;BME280;33780;51.034;7.120;2022-07-18T02:05:13;101598.22;;;18.26;52.47
48015;BME280;33780;51.034;7.120;2022-07-18T02:07:41;101595.69;;;18.25;52.25
48015;BME280;33780;51.034;7.120;2022-07-18T02:10:12;101593.47;;;18.20;52.38
48015;BME280;33780;51.034;7.120;2022-07-18T02:12:38;101591.75;;;18.19;52.37
48015;BME280;33780;51.034;7.120;2022-07-18T02:15:05;101597.50;;;18.16;52.67
48015;BME280;33780;51.034;7.120;2022-07-18T02:17:32;101596.81;;;18.14;52.48
48015;BME280;33780;51.034;7.120;2022-07-18T02:19:57;101598.13;;;18.10;52.71
48015;BME280;33780;51.034;7.120;2022-07-18T02:22:23;101592.03;;;18.08;52.94
48015;BME280;33780;51.034;7.120;2022-07-18T02:24:49;101595.22;;;18.03;52.77
48015;BME280;33780;51.034;7.120;2022-07-18T02:27:14;101589.28;;;18.00;52.91
48015;BME280;33780;51.034;7.120;2022-07-18T02:29:40;101584.19;;;17.97;53.08
48015;BME280;33780;51.034;7.120;2022-07-18T02:32:05;101587.19;;;17.94;53.09
48015;BME280;33780;51.034;7.120;2022-07-18T02:34:31;101581.22;;;17.90;52.98
48015;BME280;33780;51.034;7.120;2022-07-18T02:36:56;101589.53;;;17.89;52.97
48015;BME280;33780;51.034;7.120;2022-07-18T02:39:22;101579.84;;;17.86;53.33
48015;BME280;33780;51.034;7.120;2022-07-18T02:41:47;101587.63;;;17.81;53.20
48015;BME280;33780;51.034;7.120;2022-07-18T02:44:13;101591.50;;;17.78;53.01
48015;BME280;33780;51.034;7.120;2022-07-18T02:46:39;101588.91;;;17.77;53.24
48015;BME280;33780;51.034;7.120;2022-07-18T02:49:05;101601.91;;;17.73;53.19
48015;BME280;33780;51.034;7.120;2022-07-18T02:51:30;101597.84;;;17.69;53.35
48015;BME280;33780;51.034;7.120;2022-07-18T02:53:55;101597.25;;;17.66;53.52
48015;BME280;33780;51.034;7.120;2022-07-18T02:56:21;101595.88;;;17.62;53.57
48015;BME280;33780;51.034;7.120;2022-07-18T02:58:46;101596.16;;;17.59;53.51
48015;BME280;33780;51.034;7.120;2022-07-18T03:01:11;101587.53;;;17.55;53.66
48015;BME280;33780;51.034;7.120;2022-07-18T03:03:37;101593.25;;;17.52;53.58
48015;BME280;33780;51.034;7.120;2022-07-18T03:06:02;101591.03;;;17.47;53.78
48015;BME280;33780;51.034;7.120;2022-07-18T03:08:28;101598.28;;;17.47;53.63
48015;BME280;33780;51.034;7.120;2022-07-18T03:10:53;101602.31;;;17.43;53.96
48015;BME280;33780;51.034;7.120;2022-07-18T03:13:18;101590.91;;;17.39;54.14
48015;BME280;33780;51.034;7.120;2022-07-18T03:15:44;101592.09;;;17.37;53.87
48015;BME280;33780;51.034;7.120;2022-07-18T03:18:09;101585.13;;;17.34;54.09
48015;BME280;33780;51.034;7.120;2022-07-18T03:20:34;101591.72;;;17.32;54.10
48015;BME280;33780;51.034;7.120;2022-07-18T03:23:04;101591.16;;;17.28;54.02
48015;BME280;33780;51.034;7.120;2022-07-18T03:25:30;101588.47;;;17.28;54.24
48015;BME280;33780;51.034;7.120;2022-07-18T03:27:55;101583.38;;;17.25;54.18
48015;BME280;33780;51.034;7.120;2022-07-18T03:30:21;101589.91;;;17.22;54.13
48015;BME280;33780;51.034;7.120;2022-07-18T03:32:46;101586.50;;;17.20;54.33
48015;BME280;33780;51.034;7.120;2022-07-18T03:35:11;101584.13;;;17.17;54.60
48015;BME280;33780;51.034;7.120;2022-07-18T03:37:37;101581.72;;;17.14;54.25
48015;BME280;33780;51.034;7.120;2022-07-18T03:40:02;101583.91;;;17.11;54.41
48015;BME280;33780;51.034;7.120;2022-07-18T03:42:28;101591.63;;;17.06;54.45
48015;BME280;33780;51.034;7.120;2022-07-18T03:44:53;101580.94;;;17.04;54.48
48015;BME280;33780;51.034;7.120;2022-07-18T03:47:18;101581.09;;;17.03;54.15
48015;BME280;33780;51.034;7.120;2022-07-18T03:49:44;101589.34;;;17.01;54.63
48015;BME280;33780;51.034;7.120;2022-07-18T03:52:09;101584.94;;;17.00;54.37
48015;BME280;33780;51.034;7.120;2022-07-18T03:54:34;101586.09;;;16.98;54.64
48015;BME280;33780;51.034;7.120;2022-07-18T03:56:59;101583.56;;;16.96;54.74
48015;BME280;33780;51.034;7.120;2022-07-18T03:59:25;101589.97;;;16.95;54.68
48015;BME280;33780;51.034;7.120;2022-07-18T04:01:50;101583.88;;;16.93;54.83
48015;BME280;33780;51.034;7.120;2022-07-18T04:04:15;101583.16;;;16.91;54.48
48015;BME280;33780;51.034;7.120;2022-07-18T04:06:41;101577.75;;;16.91;54.87
48015;BME280;33780;51.034;7.120;2022-07-18T04:09:06;101583.31;;;16.89;54.56
48015;BME280;33780;51.034;7.120;2022-07-18T04:11:31;101582.59;;;16.87;54.72
48015;BME280;33780;51.034;7.120;2022-07-18T04:13:57;101590.72;;;16.87;54.60
48015;BME280;33780;51.034;7.120;2022-07-18T04:16:23;101598.28;;;16.84;55.14
48015;BME280;33780;51.034;7.120;2022-07-18T04:18:48;101597.72;;;16.80;55.17
48015;BME280;33780;51.034;7.120;2022-07-18T04:21:14;101594.19;;;16.80;55.20
48015;BME280;33780;51.034;7.120;2022-07-18T04:23:40;101602.44;;;16.78;55.42
48015;BME280;33780;51.034;7.120;2022-07-18T04:26:06;101597.88;;;16.79;55.41
48015;BME280;33780;51.034;7.120;2022-07-18T04:28:31;101600.91;;;16.76;55.30
48015;BME280;33780;51.034;7.120;2022-07-18T04:30:57;101598.88;;;16.78;55.55
48015;BME280;33780;51.034;7.120;2022-07-18T04:33:22;101596.19;;;16.78;55.23
48015;BME280;33780;51.034;7.120;2022-07-18T04:35:49;101585.38;;;16.78;55.17
48015;BME280;33780;51.034;7.120;2022-07-18T04:38:14;101589.78;;;16.79;55.18
48015;BME280;33780;51.034;7.120;2022-07-18T04:40:40;101576.41;;;16.77;55.34
48015;BME280;33780;51.034;7.120;2022-07-18T04:43:06;101587.22;;;16.77;55.47
48015;BME280;33780;51.034;7.120;2022-07-18T04:45:32;101581.81;;;16.77;55.60
48015;BME280;33780;51.034;7.120;2022-07-18T04:47:58;101579.28;;;16.76;55.44
48015;BME280;33780;51.034;7.120;2022-07-18T04:50:24;101581.97;;;16.76;55.85
48015;BME280;33780;51.034;7.120;2022-07-18T04:52:50;101581.97;;;16.76;55.88
48015;BME280;33780;51.034;7.120;2022-07-18T04:55:17;101580.97;;;16.77;55.58
48015;BME280;33780;51.034;7.120;2022-07-18T04:57:43;101575.41;;;16.78;55.47
48015;BME280;33780;51.034;7.120;2022-07-18T05:00:13;101577.13;;;16.79;55.72
48015;BME280;33780;51.034;7.120;2022-07-18T05:02:41;101581.38;;;16.82;55.78
48015;BME280;33780;51.034;7.120;2022-07-18T05:05:07;101586.47;;;16.85;56.01
48015;BME280;33780;51.034;7.120;2022-07-18T05:07:33;101585.47;;;16.86;55.87
48015;BME280;33780;51.034;7.120;2022-07-18T05:09:59;101582.31;;;16.90;56.05
48015;BME280;33780;51.034;7.120;2022-07-18T05:12:25;101581.31;;;16.91;56.24
48015;BME280;33780;51.034;7.120;2022-07-18T05:14:50;101582.00;;;16.94;56.22
48015;BME280;33780;51.034;7.120;2022-07-18T05:17:16;101585.25;;;16.97;56.03
48015;BME280;33780;51.034;7.120;2022-07-18T05:19:42;101577.00;;;16.99;56.40
48015;BME280;33780;51.034;7.120;2022-07-18T05:22:07;101572.13;;;17.02;56.52
48015;BME280;33780;51.034;7.120;2022-07-18T05:24:33;101570.97;;;17.05;56.63
48015;BME280;33780;51.034;7.120;2022-07-18T05:26:58;101571.53;;;17.08;56.55
48015;BME280;33780;51.034;7.120;2022-07-18T05:29:23;101572.06;;;17.12;56.77
48015;BME280;33780;51.034;7.120;2022-07-18T05:31:48;101569.75;;;17.17;56.43
48015;BME280;33780;51.034;7.120;2022-07-18T05:34:14;101572.97;;;17.20;56.81
48015;BME280;33780;51.034;7.120;2022-07-18T05:36:39;101574.41;;;17.25;56.59
48015;BME280;33780;51.034;7.120;2022-07-18T05:39:04;101566.81;;;17.28;56.76
48015;BME280;33780;51.034;7.120;2022-07-18T05:41:30;101565.50;;;17.32;56.90
48015;BME280;33780;51.034;7.120;2022-07-18T05:43:55;101564.88;;;17.38;56.96
48015;BME280;33780;51.034;7.120;2022-07-18T05:46:21;101561.00;;;17.41;57.15
48015;BME280;33780;51.034;7.120;2022-07-18T05:48:46;101561.41;;;17.46;57.19
48015;BME280;33780;51.034;7.120;2022-07-18T05:51:11;101553.50;;;17.52;56.73
48015;BME280;33780;51.034;7.120;2022-07-18T05:53:37;101560.13;;;17.58;57.33
48015;BME280;33780;51.034;7.120;2022-07-18T05:56:03;101551.41;;;17.64;57.17
48015;BME280;33780;51.034;7.120;2022-07-18T05:58:28;101552.66;;;17.70;57.07
48015;BME280;33780;51.034;7.120;2022-07-18T06:00:54;101548.63;;;17.74;56.97
48015;BME280;33780;51.034;7.120;2022-07-18T06:03:20;101556.28;;;17.78;56.96
48015;BME280;33780;51.034;7.120;2022-07-18T06:05:46;101556.66;;;17.84;57.15
48015;BME280;33780;51.034;7.120;2022-07-18T06:08:11;101549.91;;;17.88;57.15
48015;BME280;33780;51.034;7.120;2022-07-18T06:10:36;101553.81;;;17.93;57.13
48015;BME280;33780;51.034;7.120;2022-07-18T06:13:02;101547.28;;;17.96;56.97
48015;BME280;33780;51.034;7.120;2022-07-18T06:15:27;101548.66;;;18.00;56.96
48015;BME280;33780;51.034;7.120;2022-07-18T06:17:52;101545.28;;;18.06;56.96
48015;BME280;33780;51.034;7.120;2022-07-18T06:20:18;101547.50;;;18.10;56.85
48015;BME280;33780;51.034;7.120;2022-07-18T06:22:44;101542.31;;;18.17;56.67
48015;BME280;33780;51.034;7.120;2022-07-18T06:25:09;101540.66;;;18.24;56.71
48015;BME280;33780;51.034;7.120;2022-07-18T06:27:35;101541.00;;;18.29;56.61
48015;BME280;33780;51.034;7.120;2022-07-18T06:30:02;101534.09;;;18.35;56.81
48015;BME280;33780;51.034;7.120;2022-07-18T06:32:29;101528.19;;;18.39;56.79
48015;BME280;33780;51.034;7.120;2022-07-18T06:34:55;101517.69;;;18.45;56.90
48015;BME280;33780;51.034;7.120;2022-07-18T06:37:20;101527.06;;;18.50;57.17
48015;BME280;33780;51.034;7.120;2022-07-18T06:39:45;101527.41;;;18.55;56.79
48015;BME280;33780;51.034;7.120;2022-07-18T06:42:11;101518.78;;;18.60;57.16
48015;BME280;33780;51.034;7.120;2022-07-18T06:44:36;101516.44;;;18.65;57.06
48015;BME280;33780;51.034;7.120;2022-07-18T06:47:01;101515.97;;;18.69;57.09
48015;BME280;33780;51.034;7.120;2022-07-18T06:49:27;101513.25;;;18.78;56.80
48015;BME280;33780;51.034;7.120;2022-07-18T06:51:52;101515.31;;;18.84;57.03
48015;BME280;33780;51.034;7.120;2022-07-18T06:54:18;101508.22;;;18.91;56.73
48015;BME280;33780;51.034;7.120;2022-07-18T06:56:45;101518.38;;;18.97;56.28
48015;BME280;33780;51.034;7.120;2022-07-18T06:59:10;101515.88;;;19.04;55.81
48015;BME280;33780;51.034;7.120;2022-07-18T07:01:35;101520.44;;;19.11;55.81
48015;BME280;33780;51.034;7.120;2022-07-18T07:04:01;101513.50;;;19.17;55.43
48015;BME280;33780;51.034;7.120;2022-07-18T07:06:26;101516.22;;;19.25;55.62
48015;BME280;33780;51.034;7.120;2022-07-18T07:08:52;101520.13;;;19.30;55.47
48015;BME280;33780;51.034;7.120;2022-07-18T07:11:17;101516.56;;;19.38;55.19
48015;BME280;33780;51.034;7.120;2022-07-18T07:13:42;101511.31;;;19.45;53.44
48015;BME280;33780;51.034;7.120;2022-07-18T07:16:08;101506.72;;;19.53;52.91
48015;BME280;33780;51.034;7.120;2022-07-18T07:18:33;101510.13;;;19.64;52.34
48015;BME280;33780;51.034;7.120;2022-07-18T07:20:59;101516.22;;;19.74;52.35
48015;BME280;33780;51.034;7.120;2022-07-18T07:23:24;101517.91;;;19.83;52.28
48015;BME280;33780;51.034;7.120;2022-07-18T07:25:50;101516.88;;;19.92;51.69
48015;BME280;33780;51.034;7.120;2022-07-18T07:28:15;101518.56;;;20.01;51.36
48015;BME280;33780;51.034;7.120;2022-07-18T07:30:40;101512.94;;;20.11;51.78
48015;BME280;33780;51.034;7.120;2022-07-18T07:33:08;101515.44;;;20.20;50.81
48015;BME280;33780;51.034;7.120;2022-07-18T07:35:34;101513.72;;;20.28;50.04
48015;BME280;33780;51.034;7.120;2022-07-18T07:37:59;101504.69;;;20.35;49.20
48015;BME280;33780;51.034;7.120;2022-07-18T07:40:27;101495.50;;;20.44;49.03
48015;BME280;33780;51.034;7.120;2022-07-18T07:43:11;101495.47;;;20.52;49.66
48015;BME280;33780;51.034;7.120;2022-07-18T07:45:40;101501.50;;;20.63;48.86
48015;BME280;33780;51.034;7.120;2022-07-18T07:48:12;101498.75;;;20.71;48.62
48015;BME280;33780;51.034;7.120;2022-07-18T07:50:37;101484.25;;;20.78;48.48
48015;BME280;33780;51.034;7.120;2022-07-18T07:53:03;101485.91;;;20.88;48.27
48015;BME280;33780;51.034;7.120;2022-07-18T07:55:28;101486.50;;;20.98;48.14
48015;BME280;33780;51.034;7.120;2022-07-18T07:57:54;101482.03;;;21.05;47.37
48015;BME280;33780;51.034;7.120;2022-07-18T08:00:19;101486.56;;;21.12;46.95
48015;BME280;33780;51.034;7.120;2022-07-18T08:02:58;101488.03;;;21.23;47.06
48015;BME280;33780;51.034;7.120;2022-07-18T08:05:25;101475.41;;;21.30;46.33
48015;BME280;33780;51.034;7.120;2022-07-18T08:07:50;101470.75;;;21.39;46.58
48015;BME280;33780;51.034;7.120;2022-07-18T08:10:16;101470.47;;;21.49;45.96
48015;BME280;33780;51.034;7.120;2022-07-18T08:12:42;101467.50;;;21.58;45.65
48015;BME280;33780;51.034;7.120;2022-07-18T08:15:08;101480.16;;;21.66;45.66
48015;BME280;33780;51.034;7.120;2022-07-18T08:17:34;101468.34;;;21.74;45.56
48015;BME280;33780;51.034;7.120;2022-07-18T08:19:59;101472.22;;;21.79;45.34
48015;BME280;33780;51.034;7.120;2022-07-18T08:22:25;101468.34;;;21.88;45.82
48015;BME280;33780;51.034;7.120;2022-07-18T08:24:50;101472.88;;;21.96;45.11
48015;BME280;33780;51.034;7.120;2022-07-18T08:27:16;101467.50;;;22.02;45.56
48015;BME280;33780;51.034;7.120;2022-07-18T08:29:41;101480.06;;;22.12;45.28
48015;BME280;33780;51.034;7.120;2022-07-18T08:32:07;101477.88;;;22.22;45.35
48015;BME280;33780;51.034;7.120;2022-07-18T08:34:33;101481.53;;;22.29;43.69
48015;BME280;33780;51.034;7.120;2022-07-18T08:36:58;101477.19;;;22.35;43.62
48015;BME280;33780;51.034;7.120;2022-07-18T08:39:24;101476.44;;;22.41;43.06
48015;BME280;33780;51.034;7.120;2022-07-18T08:41:50;101471.25;;;22.46;42.08
48015;BME280;33780;51.034;7.120;2022-07-18T08:44:16;101462.09;;;22.53;42.62
48015;BME280;33780;51.034;7.120;2022-07-18T08:46:44;101460.09;;;22.62;42.30
48015;BME280;33780;51.034;7.120;2022-07-18T08:49:13;101457.47;;;22.69;42.15
48015;BME280;33780;51.034;7.120;2022-07-18T08:51:38;101460.25;;;22.75;42.00
48015;BME280;33780;51.034;7.120;2022-07-18T08:54:04;101464.78;;;22.83;42.20
48015;BME280;33780;51.034;7.120;2022-07-18T08:56:30;101450.81;;;22.92;43.15
48015;BME280;33780;51.034;7.120;2022-07-18T08:58:55;101454.28;;;23.01;41.71
48015;BME280;33780;51.034;7.120;2022-07-18T09:01:21;101457.69;;;23.10;41.75
48015;BME280;33780;51.034;7.120;2022-07-18T09:03:46;101440.34;;;23.17;42.79
48015;BME280;33780;51.034;7.120;2022-07-18T09:06:44;101446.28;;;23.28;42.75
48015;BME280;33780;51.034;7.120;2022-07-18T09:09:12;101447.00;;;23.36;40.37
48015;BME280;33780;51.034;7.120;2022-07-18T09:11:52;101444.13;;;23.44;40.51
48015;BME280;33780;51.034;7.120;2022-07-18T09:14:38;101438.69;;;23.51;40.24
48015;BME280;33780;51.034;7.120;2022-07-18T09:17:11;101433.97;;;23.60;41.49
48015;BME280;33780;51.034;7.120;2022-07-18T09:19:41;101435.50;;;23.69;41.07
48015;BME280;33780;51.034;7.120;2022-07-18T09:22:11;101437.88;;;23.78;39.95
48015;BME280;33780;51.034;7.120;2022-07-18T09:24:58;101433.91;;;23.88;40.54
48015;BME280;33780;51.034;7.120;2022-07-18T09:27:27;101435.66;;;23.95;40.32
48015;BME280;33780;51.034;7.120;2022-07-18T09:32:33;101437.03;;;24.13;39.78
48015;BME280;33780;51.034;7.120;2022-07-18T09:35:08;101437.88;;;24.20;39.54
48015;BME280;33780;51.034;7.120;2022-07-18T09:37:34;101440.88;;;24.25;38.88
48015;BME280;33780;51.034;7.120;2022-07-18T09:40:21;101440.06;;;24.31;39.05
48015;BME280;33780;51.034;7.120;2022-07-18T09:42:49;101437.78;;;24.34;39.68
48015;BME280;33780;51.034;7.120;2022-07-18T09:45:14;101439.88;;;24.39;38.14
48015;BME280;33780;51.034;7.120;2022-07-18T09:50:31;101434.47;;;24.52;37.57
48015;BME280;33780;51.034;7.120;2022-07-18T09:55:26;101433.88;;;24.63;36.94
48015;BME280;33780;51.034;7.120;2022-07-18T09:58:06;101434.50;;;24.72;36.54
48015;BME280;33780;51.034;7.120;2022-07-18T10:00:36;101429.69;;;24.81;36.08
48015;BME280;33780;51.034;7.120;2022-07-18T10:03:04;101420.00;;;24.85;36.16
48015;BME280;33780;51.034;7.120;2022-07-18T10:05:33;101426.31;;;24.92;36.26
48015;BME280;33780;51.034;7.120;2022-07-18T10:08:00;101431.19;;;24.96;36.86
48015;BME280;33780;51.034;7.120;2022-07-18T10:10:29;101431.00;;;25.05;35.98
48015;BME280;33780;51.034;7.120;2022-07-18T10:12:56;101420.06;;;25.11;35.98
48015;BME280;33780;51.034;7.120;2022-07-18T10:15:24;101416.50;;;25.17;35.75
48015;BME280;33780;51.034;7.120;2022-07-18T10:17:50;101407.41;;;25.23;35.12
48015;BME280;33780;51.034;7.120;2022-07-18T10:20:16;101411.81;;;25.31;34.16
48015;BME280;33780;51.034;7.120;2022-07-18T10:22:44;101410.16;;;25.37;34.13
48015;BME280;33780;51.034;7.120;2022-07-18T10:25:12;101411.81;;;25.44;34.58
48015;BME280;33780;51.034;7.120;2022-07-18T10:27:47;101412.88;;;25.50;33.54
48015;BME280;33780;51.034;7.120;2022-07-18T10:30:14;101412.88;;;25.56;33.50
48015;BME280;33780;51.034;7.120;2022-07-18T10:32:41;101414.31;;;25.66;33.64
48015;BME280;33780;51.034;7.120;2022-07-18T10:35:07;101415.41;;;25.71;33.59
48015;BME280;33780;51.034;7.120;2022-07-18T10:37:34;101409.06;;;25.77;33.19
48015;BME280;33780;51.034;7.120;2022-07-18T10:40:22;101406.72;;;25.87;33.95
48015;BME280;33780;51.034;7.120;2022-07-18T10:45:54;101406.88;;;25.99;32.56
48015;BME280;33780;51.034;7.120;2022-07-18T10:51:11;101400.50;;;26.12;32.28
48015;BME280;33780;51.034;7.120;2022-07-18T10:54:06;101397.31;;;26.22;33.38
48015;BME280;33780;51.034;7.120;2022-07-18T10:59:14;101405.47;;;26.35;32.73
48015;BME280;33780;51.034;7.120;2022-07-18T11:01:56;101403.78;;;26.40;31.94
48015;BME280;33780;51.034;7.120;2022-07-18T11:04:26;101398.03;;;26.48;31.47
48015;BME280;33780;51.034;7.120;2022-07-18T11:06:53;101395.66;;;26.52;30.73
48015;BME280;33780;51.034;7.120;2022-07-18T11:09:30;101395.66;;;26.59;31.36
48015;BME280;33780;51.034;7.120;2022-07-18T11:12:26;101399.97;;;26.73;29.86
48015;BME280;33780;51.034;7.120;2022-07-18T11:15:03;101397.34;;;26.85;31.87
48015;BME280;33780;51.034;7.120;2022-07-18T11:20:41;101397.22;;;27.04;32.47
48015;BME280;33780;51.034;7.120;2022-07-18T11:23:26;101387.44;;;27.15;33.05
48015;BME280;33780;51.034;7.120;2022-07-18T11:25:54;101377.22;;;27.22;31.55
48015;BME280;33780;51.034;7.120;2022-07-18T11:28:21;101375.63;;;27.33;32.25
48015;BME280;33780;51.034;7.120;2022-07-18T11:30:59;101376.19;;;27.42;31.79
48015;BME280;33780;51.034;7.120;2022-07-18T11:33:28;101368.06;;;27.47;31.13
48015;BME280;33780;51.034;7.120;2022-07-18T11:36:03;101365.03;;;27.55;32.36
48015;BME280;33780;51.034;7.120;2022-07-18T11:38:28;101355.63;;;27.62;32.32
48015;BME280;33780;51.034;7.120;2022-07-18T11:40:54;101354.09;;;27.73;31.98
48015;BME280;33780;51.034;7.120;2022-07-18T11:43:22;101357.59;;;27.80;30.75
48015;BME280;33780;51.034;7.120;2022-07-18T11:45:48;101352.25;;;27.85;31.37
48015;BME280;33780;51.034;7.120;2022-07-18T11:48:23;101357.91;;;27.90;32.01
48015;BME280;33780;51.034;7.120;2022-07-18T11:50:48;101356.97;;;27.96;31.85
48015;BME280;33780;51.034;7.120;2022-07-18T11:53:14;101358.81;;;28.03;30.48
48015;BME280;33780;51.034;7.120;2022-07-18T11:55:40;101355.97;;;28.09;30.25
48015;BME280;33780;51.034;7.120;2022-07-18T11:58:07;101343.41;;;28.13;30.85
48015;BME280;33780;51.034;7.120;2022-07-18T12:00:33;101353.09;;;28.16;29.01
48015;BME280;33780;51.034;7.120;2022-07-18T12:03:25;101348.53;;;28.28;29.77
48015;BME280;33780;51.034;7.120;2022-07-18T12:05:52;101337.28;;;28.29;28.68
48015;BME280;33780;51.034;7.120;2022-07-18T12:16:41;101331.63;;;28.66;27.72
48015;BME280;33780;51.034;7.120;2022-07-18T12:19:17;101327.72;;;28.74;28.19
48015;BME280;33780;51.034;7.120;2022-07-18T12:22:08;101324.97;;;28.85;29.40
48015;BME280;33780;51.034;7.120;2022-07-18T12:24:41;101312.56;;;28.95;28.52
48015;BME280;33780;51.034;7.120;2022-07-18T12:27:26;101318.03;;;29.06;28.88
48015;BME280;33780;51.034;7.120;2022-07-18T12:35:08;101317.13;;;29.47;27.50
48015;BME280;33780;51.034;7.120;2022-07-18T12:37:35;101309.38;;;29.61;26.38
48015;BME280;33780;51.034;7.120;2022-07-18T12:40:08;101317.31;;;29.69;27.26
48015;BME280;33780;51.034;7.120;2022-07-18T12:42:39;101309.38;;;29.73;27.35
48015;BME280;33780;51.034;7.120;2022-07-18T12:45:06;101305.63;;;29.79;27.33
48015;BME280;33780;51.034;7.120;2022-07-18T12:47:32;101300.72;;;29.81;26.94
48015;BME280;33780;51.034;7.120;2022-07-18T12:49:58;101301.91;;;29.85;27.06
48015;BME280;33780;51.034;7.120;2022-07-18T12:52:24;101299.81;;;29.92;27.06
48015;BME280;33780;51.034;7.120;2022-07-18T12:54:49;101297.06;;;29.92;27.08
48015;BME280;33780;51.034;7.120;2022-07-18T12:57:15;101288.53;;;29.94;25.78
48015;BME280;33780;51.034;7.120;2022-07-18T12:59:41;101286.47;;;30.01;26.03
48015;BME280;33780;51.034;7.120;2022-07-18T13:02:06;101288.28;;;30.07;25.68
48015;BME280;33780;51.034;7.120;2022-07-18T13:04:32;101279.25;;;30.12;26.16
48015;BME280;33780;51.034;7.120;2022-07-18T13:06:57;101278.84;;;30.20;26.91
48015;BME280;33780;51.034;7.120;2022-07-18T13:09:23;101274.00;;;30.27;26.54
48015;BME280;33780;51.034;7.120;2022-07-18T13:11:48;101276.75;;;30.27;26.29
48015;BME280;33780;51.034;7.120;2022-07-18T13:14:15;101268.47;;;30.27;25.22
48015;BME280;33780;51.034;7.120;2022-07-18T13:16:42;101273.00;;;30.33;24.68
48015;BME280;33780;51.034;7.120;2022-07-18T13:19:13;101261.47;;;30.36;24.76
48015;BME280;33780;51.034;7.120;2022-07-18T13:21:39;101261.56;;;30.41;25.96
48015;BME280;33780;51.034;7.120;2022-07-18T13:24:05;101259.97;;;30.45;26.47